Terminal Aerodrome Forecast
Issued by NWS

Home | Current Version | Previous Version | Graphics & Text | Print | Product List | Glossary On
Versions: 1 2 3 4 5 6 7 8 9 10 11 12 13 14 15 16
000
FTUS43 KICT 261329 AAA
TAFRSL
TAF AMD
KRSL 261329Z 2613/2712 36015G21KT P6SM SCT007 OVC012
      TEMPO 2613/2615 BKN009 OVC015
     FM261700 02015G22KT P6SM BKN025 OVC040
     FM270000 34012KT 6SM -RASN OVC012
     FM270600 33014KT P6SM SCT020 BKN030=

USA.gov is the U.S. government's official web portal to all federal, state and local government web resources and services.